createdAt,value
2023-04-18T00:00:24.469Z,75.63
2023-04-18T00:02:53.974Z,75.50
2023-04-18T00:05:22.340Z,76.92
2023-04-18T00:07:52.819Z,75.79
2023-04-18T00:10:20.639Z,78.29
2023-04-18T00:12:48.886Z,78.13
2023-04-18T00:15:16.426Z,76.16
2023-04-18T00:17:44.004Z,74.84
2023-04-18T00:20:12.537Z,73.97
2023-04-18T00:22:42.551Z,73.85
2023-04-18T00:25:12.324Z,74.06
2023-04-18T00:27:40.641Z,73.75
2023-04-18T00:30:09.821Z,73.87
2023-04-18T00:32:37.689Z,74.68
2023-04-18T00:35:06.046Z,74.75
2023-04-18T00:37:33.610Z,75.06
2023-04-18T00:40:01.179Z,74.74
2023-04-18T00:42:30.408Z,74.38
2023-04-18T00:44:57.979Z,75.30
2023-04-18T00:47:25.529Z,75.71
2023-04-18T00:49:53.406Z,74.74
2023-04-18T00:52:21.855Z,74.07
2023-04-18T00:54:49.502Z,74.05
2023-04-18T00:57:17.469Z,74.25
2023-04-18T00:59:47.749Z,73.75
2023-04-18T01:02:15.784Z,73.71
2023-04-18T01:04:44.078Z,73.33
2023-04-18T01:07:11.748Z,73.40
2023-04-18T01:09:39.520Z,73.40
2023-04-18T01:12:07.644Z,75.32
2023-04-18T01:14:35.316Z,76.14
2023-04-18T01:17:04.381Z,76.53
2023-04-18T01:19:31.970Z,74.93
2023-04-18T01:21:59.510Z,74.10
2023-04-18T01:24:29.730Z,75.88
2023-04-18T01:26:57.280Z,74.67
2023-04-18T01:29:24.864Z,73.73
2023-04-18T01:31:52.672Z,73.74
2023-04-18T01:34:20.609Z,74.81
2023-04-18T01:36:48.296Z,74.25
2023-04-18T01:39:16.550Z,73.43
2023-04-18T01:41:45.562Z,75.72
2023-04-18T01:44:13.347Z,74.78
2023-04-18T01:46:41.207Z,74.08
2023-04-18T01:49:09.661Z,74.76
2023-04-18T01:51:38.845Z,74.30
2023-04-18T01:54:06.462Z,74.14
2023-04-18T01:56:33.928Z,74.05
2023-04-18T01:59:02.798Z,74.62
2023-04-18T02:01:30.420Z,73.93
2023-04-18T02:03:58.099Z,73.37
2023-04-18T02:06:26.022Z,73.21
2023-04-18T02:08:53.595Z,73.43
2023-04-18T02:11:21.099Z,73.54
2023-04-18T02:13:48.655Z,73.68
2023-04-18T02:16:17.582Z,73.46
2023-04-18T02:18:45.470Z,73.47
2023-04-18T02:21:13.165Z,73.91
2023-04-18T02:23:40.878Z,74.46
2023-04-18T02:26:08.526Z,76.66
2023-04-18T02:28:38.920Z,75.36
2023-04-18T02:31:07.340Z,74.42
2023-04-18T02:33:36.630Z,73.87
2023-04-18T02:36:04.837Z,74.27
2023-04-18T02:38:32.425Z,73.92
2023-04-18T02:40:59.998Z,73.49
2023-04-18T02:43:27.737Z,73.29
2023-04-18T02:45:55.955Z,73.17
2023-04-18T02:48:23.983Z,73.01
2023-04-18T02:50:52.881Z,72.77
2023-04-18T02:53:23.813Z,74.86
2023-04-18T02:55:51.484Z,74.13
2023-04-18T02:58:19.034Z,73.62
2023-04-18T03:00:46.602Z,73.33
2023-04-18T03:03:14.289Z,73.39
2023-04-18T03:05:41.946Z,73.28
2023-04-18T03:08:10.965Z,74.19
2023-04-18T03:10:39.093Z,74.69
2023-04-18T03:13:07.029Z,75.84
2023-04-18T03:15:34.658Z,74.65
2023-04-18T03:18:02.303Z,76.28
2023-04-18T03:20:29.948Z,74.46
2023-04-18T03:22:57.529Z,73.99
2023-04-18T03:25:26.638Z,73.31
2023-04-18T03:27:54.380Z,73.20
2023-04-18T03:30:22.465Z,72.66
2023-04-18T03:32:50.104Z,72.48
2023-04-18T03:35:17.693Z,72.75
2023-04-18T03:37:45.548Z,72.66
2023-04-18T03:40:13.335Z,74.35
2023-04-18T03:42:42.239Z,73.49
2023-04-18T03:45:10.897Z,72.76
2023-04-18T03:47:38.835Z,72.64
2023-04-18T03:50:07.433Z,72.47
2023-04-18T03:52:34.958Z,72.54
2023-04-18T03:55:02.565Z,72.44
2023-04-18T03:57:30.384Z,72.10
2023-04-18T03:59:59.395Z,72.93
2023-04-18T04:02:27.046Z,72.49
2023-04-18T04:04:54.759Z,72.38
2023-04-18T04:07:22.368Z,72.49
2023-04-18T04:09:50.184Z,72.94
2023-04-18T04:12:17.876Z,72.84
2023-04-18T04:14:45.439Z,73.32
2023-04-18T04:17:14.369Z,72.85
2023-04-18T04:19:41.871Z,72.49
2023-04-18T04:22:09.880Z,72.33
2023-04-18T04:24:38.688Z,73.52
2023-04-18T04:27:06.360Z,73.06
2023-04-18T04:29:35.260Z,73.16
2023-04-18T04:32:03.802Z,73.27
2023-04-18T04:34:34.384Z,72.94
2023-04-18T04:37:03.240Z,73.05
2023-04-18T04:39:30.874Z,74.24
2023-04-18T04:41:58.600Z,75.73
2023-04-18T04:44:26.854Z,74.81
2023-04-18T04:46:54.648Z,73.65
2023-04-18T04:49:22.302Z,73.13
2023-04-18T04:51:51.336Z,73.02
2023-04-18T04:54:18.937Z,73.63
2023-04-18T04:56:46.634Z,73.39
2023-04-18T04:59:14.274Z,73.00
2023-04-18T05:01:41.911Z,73.15
2023-04-18T05:04:09.564Z,73.62
2023-04-18T05:06:40.036Z,73.51
2023-04-18T05:09:09.302Z,72.95
2023-04-18T05:11:36.819Z,72.62
2023-04-18T05:14:04.404Z,72.34
2023-04-18T05:16:32.906Z,72.44
2023-04-18T05:19:00.769Z,72.41
2023-04-18T05:21:28.688Z,72.31
2023-04-18T05:23:56.767Z,72.32
2023-04-18T05:26:25.850Z,72.15
2023-04-18T05:28:53.386Z,72.11
2023-04-18T05:31:20.965Z,72.24
2023-04-18T05:33:48.507Z,74.54
2023-04-18T05:36:16.286Z,75.29
2023-04-18T05:38:43.804Z,74.94
2023-04-18T05:41:11.319Z,73.87
2023-04-18T05:43:40.945Z,72.85
2023-04-18T05:46:09.482Z,72.56
2023-04-18T05:48:36.992Z,72.53
2023-04-18T05:51:05.840Z,72.16
2023-04-18T05:53:33.304Z,72.14
2023-04-18T05:56:01.372Z,71.98
2023-04-18T05:58:29.594Z,71.85
2023-04-18T06:00:58.423Z,71.89
2023-04-18T06:03:26.077Z,72.32
2023-04-18T06:05:53.837Z,71.93
2023-04-18T06:08:21.395Z,71.74
2023-04-18T06:10:48.928Z,71.61
2023-04-18T06:13:16.398Z,71.76
2023-04-18T06:15:43.954Z,71.81
2023-04-18T06:18:12.865Z,72.07
2023-04-18T06:20:42.034Z,72.04
2023-04-18T06:23:09.559Z,72.27
2023-04-18T06:25:37.569Z,72.29
2023-04-18T06:28:05.373Z,72.40
2023-04-18T06:30:32.898Z,72.12
2023-04-18T06:33:00.662Z,71.74
2023-04-18T06:35:31.760Z,71.76
2023-04-18T06:37:59.269Z,71.70
2023-04-18T06:40:26.772Z,71.88
2023-04-18T06:42:54.266Z,72.07
2023-04-18T06:45:22.040Z,72.33
2023-04-18T06:47:51.344Z,71.96
2023-04-18T06:50:19.016Z,71.27
2023-04-18T06:52:47.879Z,70.56
2023-04-18T06:55:15.626Z,70.67
2023-04-18T06:57:43.668Z,70.75
2023-04-18T07:00:12.176Z,70.44
2023-04-18T07:02:41.053Z,70.46
2023-04-18T07:05:09.344Z,69.75
2023-04-18T07:07:36.852Z,69.22
2023-04-18T07:10:09.537Z,68.49
2023-04-18T07:12:37.037Z,68.86
2023-04-18T07:15:05.075Z,67.80
2023-04-18T07:17:32.703Z,67.31
2023-04-18T07:20:00.365Z,66.92
2023-04-18T07:22:27.893Z,66.70
2023-04-18T07:24:55.476Z,66.47
2023-04-18T07:27:24.355Z,66.25
2023-04-18T07:29:51.855Z,66.26
2023-04-18T07:32:19.468Z,66.29
2023-04-18T07:34:47.025Z,65.88
2023-04-18T07:37:15.188Z,66.38
2023-04-18T07:39:42.859Z,66.71
2023-04-18T07:42:11.304Z,66.75
2023-04-18T07:44:40.445Z,66.69
2023-04-18T07:47:10.298Z,67.25
2023-04-18T07:49:38.044Z,67.88
2023-04-18T07:52:06.153Z,68.01
2023-04-18T07:54:33.653Z,67.86
2023-04-18T07:57:01.193Z,67.56
2023-04-18T07:59:28.956Z,68.82
2023-04-18T08:01:57.827Z,67.96
2023-04-18T08:04:29.113Z,68.05
2023-04-18T08:06:57.556Z,67.74
2023-04-18T08:09:25.034Z,67.93
2023-04-18T08:11:54.965Z,67.37
2023-04-18T08:14:22.516Z,67.63
2023-04-18T08:16:50.044Z,67.50
2023-04-18T08:19:18.913Z,67.45
2023-04-18T08:21:46.482Z,66.86
2023-04-18T08:24:14.005Z,66.38
2023-04-18T08:26:41.519Z,65.47
2023-04-18T08:29:09.079Z,64.60
2023-04-18T08:31:36.672Z,63.84
2023-04-18T08:34:05.113Z,62.84
2023-04-18T08:36:35.837Z,61.96
2023-04-18T08:39:03.500Z,61.98
2023-04-18T08:41:36.786Z,61.40
2023-04-18T08:44:04.596Z,61.88
2023-04-18T08:46:35.797Z,60.74
2023-04-18T08:49:04.598Z,60.60
2023-04-18T08:51:33.929Z,59.72
2023-04-18T08:54:04.507Z,60.50
2023-04-18T08:56:32.205Z,58.63
2023-04-18T08:59:00.643Z,58.57
2023-04-18T09:01:56.979Z,59.56
2023-04-18T09:04:35.772Z,59.13
2023-04-18T09:07:04.152Z,60.11
2023-04-18T09:09:46.366Z,60.23
2023-04-18T09:12:15.505Z,60.57
2023-04-18T09:14:46.944Z,60.65
2023-04-18T09:17:16.517Z,60.46
2023-04-18T09:19:50.230Z,60.66
2023-04-18T09:22:18.513Z,60.78
2023-04-18T09:24:53.524Z,60.58
2023-04-18T09:27:22.892Z,60.62
2023-04-18T09:29:52.189Z,60.73
2023-04-18T09:32:26.780Z,60.05
2023-04-18T09:34:58.003Z,59.50
2023-04-18T09:37:26.742Z,58.82
2023-04-18T09:39:56.342Z,58.77
2023-04-18T09:42:24.631Z,58.74
2023-04-18T09:45:02.418Z,58.02
2023-04-18T09:47:30.731Z,57.08
2023-04-18T09:49:58.239Z,56.91
2023-04-18T09:52:26.785Z,56.17
2023-04-18T09:55:00.617Z,54.78
2023-04-18T09:57:29.830Z,55.10
2023-04-18T10:00:06.708Z,55.50
2023-04-18T10:02:40.229Z,56.28
2023-04-18T10:05:09.174Z,56.60
2023-04-18T10:07:37.194Z,57.58
2023-04-18T10:10:07.212Z,57.43
2023-04-18T10:12:35.165Z,58.58
2023-04-18T10:15:03.161Z,58.78
2023-04-18T10:17:36.721Z,58.64
2023-04-18T10:20:07.946Z,58.72
2023-04-18T10:22:36.538Z,58.84
2023-04-18T10:25:04.568Z,58.99
2023-04-18T10:27:58.278Z,58.68
2023-04-18T10:30:52.345Z,59.27
2023-04-18T10:33:31.820Z,59.65
2023-04-18T10:36:04.883Z,60.02
2023-04-18T10:38:33.003Z,60.34
2023-04-18T10:41:21.268Z,60.76
2023-04-18T10:44:23.355Z,61.31
2023-04-18T10:47:30.979Z,61.40
2023-04-18T10:50:01.226Z,61.18
2023-04-18T10:52:30.277Z,61.63
2023-04-18T10:55:08.568Z,60.88
2023-04-18T10:57:41.063Z,61.35
2023-04-18T11:00:12.640Z,60.99
2023-04-18T11:02:41.466Z,61.01
2023-04-18T11:05:09.985Z,60.90
2023-04-18T11:07:39.009Z,60.67
2023-04-18T11:10:08.706Z,60.51
2023-04-18T11:12:38.718Z,60.68
2023-04-18T11:15:14.529Z,60.31
2023-04-18T11:17:42.462Z,59.79
2023-04-18T11:20:12.768Z,59.74
2023-04-18T11:22:48.282Z,58.71
2023-04-18T11:25:16.347Z,58.94
2023-04-18T11:27:45.313Z,58.70
2023-04-18T11:30:15.634Z,58.38
2023-04-18T11:32:43.520Z,58.40
2023-04-18T11:35:12.780Z,58.78
2023-04-18T11:37:41.972Z,58.42
2023-04-18T11:40:10.892Z,58.08
2023-04-18T11:42:39.869Z,58.17
2023-04-18T11:45:11.159Z,57.74
2023-04-18T11:47:42.831Z,57.74
2023-04-18T11:50:11.988Z,57.71
2023-04-18T11:52:41.393Z,57.75
2023-04-18T11:55:14.504Z,57.86
2023-04-18T11:57:42.595Z,57.54
2023-04-18T12:00:12.309Z,57.66
2023-04-18T12:02:43.134Z,57.56
2023-04-18T12:05:11.874Z,57.95
2023-04-18T12:07:41.193Z,57.96
2023-04-18T12:10:10.378Z,57.53
2023-04-18T12:12:38.055Z,57.63
2023-04-18T12:15:09.213Z,57.21
2023-04-18T12:17:37.916Z,57.09
2023-04-18T12:20:09.636Z,56.68
2023-04-18T12:22:42.974Z,55.27
2023-04-18T12:25:25.916Z,55.50
2023-04-18T12:27:56.840Z,55.96
2023-04-18T12:30:27.451Z,55.61
2023-04-18T12:32:56.838Z,55.29
2023-04-18T12:35:26.769Z,55.55
2023-04-18T12:37:56.060Z,55.46
2023-04-18T12:40:26.082Z,55.33
2023-04-18T12:42:54.889Z,55.63
2023-04-18T12:45:24.072Z,55.34
2023-04-18T12:47:52.926Z,55.37
2023-04-18T12:50:22.041Z,55.65
2023-04-18T12:52:52.850Z,55.56
2023-04-18T12:55:20.827Z,56.11
2023-04-18T12:57:48.792Z,56.13
2023-04-18T13:00:16.608Z,56.25
2023-04-18T13:02:45.894Z,56.04
2023-04-18T13:05:16.042Z,56.32
2023-04-18T13:07:44.403Z,56.15
2023-04-18T13:10:15.366Z,56.38
2023-04-18T13:12:43.072Z,56.14
2023-04-18T13:15:11.744Z,56.28
2023-04-18T13:17:40.159Z,55.97
2023-04-18T13:20:10.498Z,56.35
2023-04-18T13:22:38.458Z,55.84
2023-04-18T13:25:08.130Z,55.32
2023-04-18T13:27:37.686Z,54.94
2023-04-18T13:30:07.948Z,54.71
2023-04-18T13:32:36.162Z,54.46
2023-04-18T13:35:03.754Z,53.84
2023-04-18T13:37:31.491Z,53.91
2023-04-18T13:39:58.994Z,53.78
2023-04-18T13:42:26.590Z,53.98
2023-04-18T13:44:55.550Z,53.34
2023-04-18T13:47:23.130Z,53.58
2023-04-18T13:49:50.710Z,52.96
2023-04-18T13:52:18.551Z,52.85
2023-04-18T13:54:46.301Z,52.99
2023-04-18T13:57:14.647Z,52.78
2023-04-18T13:59:42.284Z,52.71
2023-04-18T14:02:11.791Z,52.89
2023-04-18T14:04:39.765Z,52.43
2023-04-18T14:07:07.986Z,52.35
2023-04-18T14:09:35.756Z,52.63
2023-04-18T14:12:03.364Z,52.20
2023-04-18T14:14:30.977Z,52.47
2023-04-18T14:16:58.606Z,51.86
2023-04-18T14:19:27.880Z,51.71
2023-04-18T14:21:55.608Z,52.03
2023-04-18T14:24:23.164Z,52.04
2023-04-18T14:26:50.701Z,51.78
2023-04-18T14:29:18.249Z,51.62
2023-04-18T14:31:46.075Z,51.60
2023-04-18T14:34:13.725Z,52.08
2023-04-18T14:36:42.633Z,52.35
2023-04-18T14:39:11.057Z,52.49
2023-04-18T14:41:38.825Z,52.82
2023-04-18T14:44:06.472Z,52.60
2023-04-18T14:46:34.144Z,53.32
2023-04-18T14:49:01.872Z,53.78
2023-04-18T14:51:29.398Z,54.48
2023-04-18T14:53:58.295Z,54.78
2023-04-18T14:56:26.533Z,55.01
2023-04-18T14:58:54.146Z,55.39
2023-04-18T15:01:21.909Z,55.33
2023-04-18T15:03:51.312Z,55.57
2023-04-18T15:06:19.054Z,56.02
2023-04-18T15:08:47.152Z,56.22
2023-04-18T15:11:16.054Z,56.08
2023-04-18T15:13:44.455Z,56.41
2023-04-18T15:16:12.484Z,56.71
2023-04-18T15:18:40.184Z,56.53
2023-04-18T15:21:07.754Z,56.85
2023-04-18T15:23:35.550Z,56.71
2023-04-18T15:26:03.138Z,56.74
2023-04-18T15:28:32.302Z,57.01
2023-04-18T15:30:59.913Z,56.74
2023-04-18T15:33:27.455Z,57.32
2023-04-18T15:35:56.316Z,57.50
2023-04-18T15:38:23.967Z,57.70
2023-04-18T15:40:51.748Z,57.99
2023-04-18T15:43:19.293Z,57.94
2023-04-18T15:45:48.878Z,57.82
2023-04-18T15:48:16.527Z,57.99
2023-04-18T15:50:44.111Z,57.90
2023-04-18T15:53:11.706Z,58.21
2023-04-18T15:55:39.524Z,58.28
2023-04-18T15:58:07.488Z,58.70
2023-04-18T16:00:35.084Z,58.75
2023-04-18T16:03:04.649Z,58.79
2023-04-18T16:05:32.441Z,59.34
2023-04-18T16:08:00.014Z,59.40
2023-04-18T16:10:27.640Z,59.30
2023-04-18T16:12:55.286Z,59.44
2023-04-18T16:15:22.849Z,59.59
2023-04-18T16:17:50.595Z,59.58
2023-04-18T16:20:19.573Z,59.40
2023-04-18T16:22:47.789Z,59.21
2023-04-18T16:25:15.498Z,59.51
2023-04-18T16:27:43.518Z,59.57
2023-04-18T16:30:11.620Z,60.05
2023-04-18T16:32:39.390Z,59.61
2023-04-18T16:35:10.059Z,59.49
2023-04-18T16:37:39.595Z,59.81
2023-04-18T16:40:09.848Z,59.90
2023-04-18T16:42:37.594Z,60.12
2023-04-18T16:45:05.865Z,60.09
2023-04-18T16:47:33.555Z,60.26
2023-04-18T16:50:01.091Z,60.26
2023-04-18T16:52:28.716Z,59.82
2023-04-18T16:54:57.583Z,59.77
2023-04-18T16:57:25.272Z,59.97
2023-04-18T16:59:52.890Z,60.05
2023-04-18T17:02:20.574Z,60.35
2023-04-18T17:04:48.990Z,60.39
2023-04-18T17:07:16.630Z,60.33
2023-04-18T17:09:44.117Z,60.40
2023-04-18T17:12:13.241Z,60.57
2023-04-18T17:14:40.789Z,60.60
2023-04-18T17:17:08.379Z,60.77
2023-04-18T17:19:36.040Z,60.72
2023-04-18T17:22:03.600Z,61.52
2023-04-18T17:24:31.560Z,61.15
2023-04-18T17:27:00.220Z,61.09
2023-04-18T17:29:29.128Z,60.79
2023-04-18T17:31:56.634Z,61.19
2023-04-18T17:34:24.226Z,61.24
2023-04-18T17:36:51.711Z,61.39
2023-04-18T17:39:19.231Z,61.27
2023-04-18T17:41:47.016Z,61.41
2023-04-18T17:44:14.490Z,61.53
2023-04-18T17:46:43.331Z,61.42
2023-04-18T17:49:11.283Z,61.30
2023-04-18T17:51:38.853Z,61.54
2023-04-18T17:54:08.028Z,61.30
2023-04-18T17:56:35.659Z,61.78
2023-04-18T17:59:03.206Z,61.67
2023-04-18T18:01:31.374Z,61.67
2023-04-18T18:04:00.508Z,61.90
2023-04-18T18:06:28.119Z,62.11
2023-04-18T18:08:55.922Z,62.10
2023-04-18T18:11:23.746Z,62.09
2023-04-18T18:13:54.515Z,62.26
2023-04-18T18:16:22.781Z,61.95
2023-04-18T18:18:50.865Z,62.18
2023-04-18T18:21:19.999Z,62.43
2023-04-18T18:23:47.513Z,62.49
2023-04-18T18:26:15.056Z,62.90
2023-04-18T18:28:42.569Z,63.22
2023-04-18T18:31:10.911Z,63.16
2023-04-18T18:33:38.506Z,63.50
2023-04-18T18:36:06.730Z,63.80
2023-04-18T18:38:35.630Z,63.95
2023-04-18T18:41:04.555Z,64.31
2023-04-18T18:43:32.442Z,64.78
2023-04-18T18:46:00.044Z,64.87
2023-04-18T18:48:28.259Z,65.15
2023-04-18T18:50:56.548Z,65.48
2023-04-18T18:53:24.073Z,66.04
2023-04-18T18:55:52.929Z,65.72
2023-04-18T18:58:20.649Z,66.26
2023-04-18T19:00:48.207Z,66.38
2023-04-18T19:03:18.350Z,66.48
2023-04-18T19:05:45.973Z,66.67
2023-04-18T19:08:13.567Z,67.19
2023-04-18T19:10:41.905Z,67.42
2023-04-18T19:13:10.809Z,67.48
2023-04-18T19:15:38.567Z,67.21
2023-04-18T19:18:06.242Z,67.33
2023-04-18T19:20:33.789Z,67.54
2023-04-18T19:23:01.323Z,67.52
2023-04-18T19:25:28.876Z,67.50
2023-04-18T19:27:56.433Z,67.66
2023-04-18T19:30:25.400Z,67.79
2023-04-18T19:32:52.945Z,68.02
2023-04-18T19:35:20.499Z,68.06
2023-04-18T19:37:48.013Z,68.29
2023-04-18T19:40:15.528Z,68.27
2023-04-18T19:42:43.052Z,68.34
2023-04-18T19:45:12.769Z,68.75
2023-04-18T19:47:43.919Z,68.96
2023-04-18T19:50:12.084Z,69.03
2023-04-18T19:52:39.640Z,69.14
2023-04-18T19:55:08.283Z,69.39
2023-04-18T19:57:39.346Z,69.43
2023-04-18T20:00:08.801Z,69.36
2023-04-18T20:02:36.698Z,69.35
2023-04-18T20:05:07.349Z,69.68
2023-04-18T20:07:35.596Z,69.55
2023-04-18T20:10:04.288Z,69.72
2023-04-18T20:12:32.112Z,69.78
2023-04-18T20:14:59.693Z,69.97
2023-04-18T20:17:27.704Z,69.90
2023-04-18T20:19:57.070Z,69.97
2023-04-18T20:22:26.750Z,70.18
2023-04-18T20:24:57.052Z,70.22
2023-04-18T20:27:24.821Z,70.10
2023-04-18T20:29:52.530Z,70.29
2023-04-18T20:32:20.063Z,70.37
2023-04-18T20:34:47.589Z,70.13
2023-04-18T20:37:19.885Z,70.05
2023-04-18T20:39:48.796Z,69.89
2023-04-18T20:42:16.320Z,69.75
2023-04-18T20:44:46.655Z,69.86
2023-04-18T20:47:15.668Z,69.70
2023-04-18T20:49:43.514Z,69.78
2023-04-18T20:52:11.060Z,69.71
2023-04-18T20:54:38.569Z,69.81
2023-04-18T20:57:07.409Z,69.90
2023-04-18T20:59:35.014Z,69.93
2023-04-18T21:02:03.470Z,69.90
2023-04-18T21:04:31.231Z,70.06
2023-04-18T21:06:59.448Z,70.05
2023-04-18T21:09:26.947Z,70.16
2023-04-18T21:11:54.467Z,70.29
2023-04-18T21:14:23.645Z,70.29
2023-04-18T21:16:51.143Z,70.51
2023-04-18T21:19:18.662Z,70.46
2023-04-18T21:21:46.180Z,70.51
2023-04-18T21:24:13.918Z,70.49
2023-04-18T21:26:41.672Z,70.43
2023-04-18T21:29:09.260Z,70.51
2023-04-18T21:31:38.266Z,70.81
2023-04-18T21:34:06.674Z,71.02
2023-04-18T21:36:34.386Z,70.68
2023-04-18T21:39:02.206Z,70.82
2023-04-18T21:41:29.908Z,70.84
2023-04-18T21:43:57.449Z,70.84
2023-04-18T21:46:25.080Z,70.78
2023-04-18T21:48:54.066Z,70.78
2023-04-18T21:51:21.659Z,70.55
2023-04-18T21:53:49.164Z,70.80
2023-04-18T21:56:17.549Z,70.73
2023-04-18T21:58:45.268Z,70.55
2023-04-18T22:01:12.887Z,70.58
2023-04-18T22:03:40.744Z,70.62
2023-04-18T22:06:09.787Z,70.74
2023-04-18T22:08:37.385Z,70.87
2023-04-18T22:11:05.582Z,70.75
2023-04-18T22:13:33.705Z,70.73
2023-04-18T22:16:03.351Z,70.73
2023-04-18T22:18:33.822Z,70.81
2023-04-18T22:21:02.324Z,70.94
2023-04-18T22:23:31.576Z,70.97
2023-04-18T22:25:59.325Z,70.78
2023-04-18T22:28:27.945Z,70.64
2023-04-18T22:30:55.538Z,70.67
2023-04-18T22:33:23.097Z,70.57
2023-04-18T22:35:50.698Z,70.84
2023-04-18T22:38:18.283Z,70.63
2023-04-18T22:40:47.134Z,70.53
2023-04-18T22:43:14.682Z,70.86
2023-04-18T22:45:42.195Z,70.85
2023-04-18T22:48:12.175Z,71.12
2023-04-18T22:50:42.826Z,71.03
2023-04-18T22:53:10.946Z,70.74
2023-04-18T22:55:42.244Z,70.96
2023-04-18T22:58:12.154Z,71.54
2023-04-18T23:00:39.770Z,71.61
2023-04-18T23:03:07.371Z,71.19
2023-04-18T23:05:35.319Z,70.82
2023-04-18T23:08:02.952Z,70.53
2023-04-18T23:10:30.801Z,70.76
2023-04-18T23:12:58.310Z,70.92
2023-04-18T23:15:27.202Z,70.76
2023-04-18T23:17:55.008Z,70.80
2023-04-18T23:20:23.823Z,70.95
2023-04-18T23:22:51.784Z,71.02
2023-04-18T23:25:20.232Z,71.11
2023-04-18T23:27:47.824Z,71.29
2023-04-18T23:30:15.479Z,71.21
2023-04-18T23:32:44.384Z,71.35
2023-04-18T23:35:12.328Z,71.28
2023-04-18T23:37:40.148Z,71.22
2023-04-18T23:40:09.135Z,71.37
2023-04-18T23:42:36.983Z,71.29
2023-04-18T23:45:05.813Z,71.36
2023-04-18T23:47:33.448Z,71.24
2023-04-18T23:50:02.439Z,71.68
2023-04-18T23:52:30.048Z,71.26
2023-04-18T23:55:00.330Z,71.49
2023-04-18T23:57:27.959Z,71.33
2023-04-18T23:59:55.469Z,71.42
